createdAt,value
2018-10-03T00:01:06.706Z,75.90
2018-10-03T00:03:34.273Z,75.89
2018-10-03T00:06:02.106Z,75.35
2018-10-03T00:08:30.154Z,75.12
2018-10-03T00:11:00.695Z,75.28
2018-10-03T00:13:32.649Z,75.44
2018-10-03T00:16:01.989Z,75.43
2018-10-03T00:18:30.176Z,76.03
2018-10-03T00:21:01.065Z,75.53
2018-10-03T00:23:28.593Z,75.79
2018-10-03T00:25:56.180Z,75.67
2018-10-03T00:28:24.202Z,75.89
2018-10-03T00:30:52.442Z,75.72
2018-10-03T00:33:20.830Z,75.55
2018-10-03T00:35:49.875Z,75.53
2018-10-03T00:38:19.233Z,75.48
2018-10-03T00:40:46.781Z,75.23
2018-10-03T00:43:14.649Z,75.70
2018-10-03T00:45:42.326Z,75.30
2018-10-03T00:48:10.186Z,75.66
2018-10-03T00:50:38.269Z,75.54
2018-10-03T00:53:05.836Z,75.42
2018-10-03T00:55:36.617Z,75.11
2018-10-03T00:58:04.489Z,75.36
2018-10-03T01:00:32.037Z,75.22
2018-10-03T01:03:00.249Z,75.10
2018-10-03T01:05:28.118Z,75.10
2018-10-03T01:07:55.674Z,75.06
2018-10-03T01:10:23.925Z,75.08
2018-10-03T01:12:53.040Z,75.64
2018-10-03T01:15:21.286Z,75.62
2018-10-03T01:17:48.829Z,75.62
2018-10-03T01:20:18.290Z,75.69
2018-10-03T01:22:47.035Z,75.53
2018-10-03T01:25:14.588Z,75.02
2018-10-03T01:27:42.140Z,75.87
2018-10-03T01:30:10.058Z,75.67
2018-10-03T01:32:37.593Z,75.03
2018-10-03T01:35:05.106Z,75.62
2018-10-03T01:37:32.686Z,75.11
2018-10-03T01:40:00.665Z,75.39
2018-10-03T01:42:29.348Z,75.88
2018-10-03T01:44:56.887Z,75.11
2018-10-03T01:47:25.659Z,76.09
2018-10-03T01:49:53.202Z,75.19
2018-10-03T01:52:20.725Z,76.16
2018-10-03T01:54:48.689Z,76.03
2018-10-03T01:57:16.305Z,76.51
2018-10-03T01:59:43.942Z,75.85
2018-10-03T02:02:11.921Z,76.71
2018-10-03T02:04:39.461Z,76.80
2018-10-03T02:07:07.024Z,76.84
2018-10-03T02:09:35.104Z,76.11
2018-10-03T02:12:02.989Z,76.08
2018-10-03T02:14:30.504Z,76.41
2018-10-03T02:16:58.031Z,76.47
2018-10-03T02:19:25.981Z,76.05
2018-10-03T02:21:53.497Z,76.65
2018-10-03T02:24:21.395Z,76.63
2018-10-03T02:26:50.315Z,75.99
2018-10-03T02:29:17.902Z,76.35
2018-10-03T02:31:45.449Z,76.73
2018-10-03T02:34:12.956Z,76.52
2018-10-03T02:36:40.780Z,76.88
2018-10-03T02:39:08.409Z,77.11
2018-10-03T02:41:35.900Z,76.41
2018-10-03T02:44:03.413Z,76.93
2018-10-03T02:46:31.235Z,76.46
2018-10-03T02:48:58.744Z,76.22
2018-10-03T02:51:26.265Z,76.66
2018-10-03T02:53:54.189Z,76.75
2018-10-03T02:56:21.675Z,76.40
2018-10-03T02:58:50.367Z,76.72
2018-10-03T03:01:18.531Z,76.66
2018-10-03T03:03:46.505Z,76.15
2018-10-03T03:06:15.024Z,76.60
2018-10-03T03:08:43.145Z,76.20
2018-10-03T03:11:11.091Z,76.12
2018-10-03T03:13:38.587Z,76.44
2018-10-03T03:16:07.696Z,76.29
2018-10-03T03:18:36.594Z,76.04
2018-10-03T03:21:04.493Z,76.59
2018-10-03T03:23:32.084Z,76.41
2018-10-03T03:25:59.676Z,76.55
2018-10-03T03:28:28.435Z,76.58
2018-10-03T03:30:55.978Z,76.92
2018-10-03T03:33:23.579Z,76.71
2018-10-03T03:35:51.407Z,77.00
2018-10-03T03:38:19.430Z,76.97
2018-10-03T03:40:46.948Z,76.73
2018-10-03T03:43:14.828Z,77.00
2018-10-03T03:45:42.469Z,77.09
2018-10-03T03:48:09.983Z,76.82
2018-10-03T03:50:37.486Z,76.26
2018-10-03T03:53:05.468Z,76.82
2018-10-03T03:55:32.969Z,76.17
2018-10-03T03:58:00.475Z,76.38
2018-10-03T04:00:28.444Z,75.83
2018-10-03T04:02:55.931Z,76.45
2018-10-03T04:05:23.416Z,76.19
2018-10-03T04:07:51.267Z,76.01
2018-10-03T04:10:18.769Z,76.25
2018-10-03T04:12:48.182Z,75.75
2018-10-03T04:15:15.744Z,76.12
2018-10-03T04:17:43.699Z,76.10
2018-10-03T04:20:12.196Z,76.11
2018-10-03T04:22:39.724Z,76.27
2018-10-03T04:25:08.832Z,75.95
2018-10-03T04:27:36.337Z,76.08
2018-10-03T04:30:03.846Z,75.64
2018-10-03T04:32:32.260Z,76.24
2018-10-03T04:35:00.229Z,76.16
2018-10-03T04:37:27.749Z,76.24
2018-10-03T04:39:55.256Z,75.78
2018-10-03T04:42:22.861Z,75.65
2018-10-03T04:44:50.668Z,76.12
2018-10-03T04:47:20.830Z,76.24
2018-10-03T04:49:48.328Z,76.03
2018-10-03T04:52:15.813Z,75.49
2018-10-03T04:54:43.452Z,75.71
2018-10-03T04:57:10.964Z,75.48
2018-10-03T04:59:38.508Z,75.45
2018-10-03T05:02:06.371Z,75.54
2018-10-03T05:04:33.869Z,75.70
2018-10-03T05:07:01.408Z,75.77
2018-10-03T05:09:28.924Z,75.49
2018-10-03T05:11:56.754Z,75.45
2018-10-03T05:14:27.432Z,75.56
2018-10-03T05:16:55.766Z,75.21
2018-10-03T05:19:23.603Z,75.10
2018-10-03T05:21:51.124Z,75.35
2018-10-03T05:24:18.650Z,75.49
2018-10-03T05:26:47.295Z,75.69
2018-10-03T05:29:15.117Z,75.79
2018-10-03T05:31:42.646Z,75.92
2018-10-03T05:34:10.246Z,76.23
2018-10-03T05:36:39.409Z,75.71
2018-10-03T05:39:06.939Z,75.68
2018-10-03T05:41:34.431Z,76.16
2018-10-03T05:44:01.917Z,75.73
2018-10-03T05:46:30.768Z,75.89
2018-10-03T05:48:58.296Z,75.70
2018-10-03T05:51:25.969Z,75.90
2018-10-03T05:53:53.484Z,75.94
2018-10-03T05:56:20.988Z,75.77
2018-10-03T05:58:48.501Z,76.03
2018-10-03T06:01:15.987Z,75.61
2018-10-03T06:03:43.790Z,75.85
2018-10-03T06:06:11.574Z,75.94
2018-10-03T06:08:39.055Z,75.82
2018-10-03T06:11:07.233Z,75.61
2018-10-03T06:13:35.047Z,75.43
2018-10-03T06:16:03.468Z,76.22
2018-10-03T06:18:31.800Z,76.49
2018-10-03T06:21:02.816Z,76.22
2018-10-03T06:23:30.558Z,76.24
2018-10-03T06:25:58.053Z,76.03
2018-10-03T06:28:25.984Z,75.64
2018-10-03T06:30:53.507Z,75.44
2018-10-03T06:33:22.719Z,75.30
2018-10-03T06:35:50.556Z,75.20
2018-10-03T06:38:18.084Z,75.46
2018-10-03T06:40:45.580Z,75.20
2018-10-03T06:43:14.533Z,75.69
2018-10-03T06:45:42.534Z,75.77
2018-10-03T06:48:10.032Z,75.08
2018-10-03T06:50:38.528Z,75.32
2018-10-03T06:53:06.988Z,75.63
2018-10-03T06:55:35.431Z,75.42
2018-10-03T06:58:03.467Z,74.65
2018-10-03T07:00:32.236Z,74.75
2018-10-03T07:03:00.406Z,75.09
2018-10-03T07:05:29.120Z,74.21
2018-10-03T07:07:57.633Z,74.19
2018-10-03T07:10:25.905Z,74.40
2018-10-03T07:12:54.370Z,74.36
2018-10-03T07:15:22.492Z,74.43
2018-10-03T07:17:52.170Z,74.56
2018-10-03T07:20:21.075Z,73.75
2018-10-03T07:22:49.703Z,73.95
2018-10-03T07:25:18.441Z,74.04
2018-10-03T07:27:47.153Z,73.80
2018-10-03T07:30:16.342Z,73.57
2018-10-03T07:32:43.895Z,73.42
2018-10-03T07:35:11.452Z,73.13
2018-10-03T07:37:40.070Z,73.55
2018-10-03T07:40:08.719Z,73.41
2018-10-03T07:42:37.643Z,73.05
2018-10-03T07:45:06.356Z,73.41
2018-10-03T07:47:40.697Z,72.77
2018-10-03T07:50:09.486Z,72.45
2018-10-03T07:52:37.388Z,72.66
2018-10-03T07:55:06.308Z,72.63
2018-10-03T08:00:08.911Z,72.42
2018-10-03T08:02:36.569Z,72.29
2018-10-03T08:05:04.324Z,72.15
2018-10-03T08:07:32.190Z,71.37
2018-10-03T08:09:59.750Z,71.51
2018-10-03T08:12:30.083Z,71.54
2018-10-03T08:14:59.236Z,70.79
2018-10-03T08:17:27.430Z,70.64
2018-10-03T08:19:56.467Z,70.64
2018-10-03T08:22:24.512Z,70.74
2018-10-03T08:24:53.232Z,70.84
2018-10-03T08:27:23.111Z,70.73
2018-10-03T08:29:55.452Z,71.11
2018-10-03T08:32:24.156Z,70.25
2018-10-03T08:34:51.697Z,70.37
2018-10-03T08:37:25.723Z,70.02
2018-10-03T08:45:00.229Z,69.58
2018-10-03T08:47:28.385Z,69.60
2018-10-03T08:49:58.507Z,69.24
2018-10-03T08:52:26.905Z,69.38
2018-10-03T08:54:55.657Z,68.02
2018-10-03T08:57:24.597Z,68.23
2018-10-03T08:59:53.380Z,67.77
2018-10-03T09:02:23.350Z,67.54
2018-10-03T09:04:53.662Z,66.30
2018-10-03T09:07:21.195Z,66.20
2018-10-03T09:09:50.931Z,66.46
2018-10-03T09:12:19.875Z,67.28
2018-10-03T09:14:48.222Z,67.03
2018-10-03T09:17:16.812Z,67.27
2018-10-03T09:19:55.359Z,67.52
2018-10-03T09:22:23.663Z,67.83
2018-10-03T09:24:52.878Z,68.05
2018-10-03T09:27:22.266Z,67.11
2018-10-03T09:29:50.760Z,67.00
2018-10-03T09:32:18.582Z,67.89
2018-10-03T09:34:47.341Z,68.34
2018-10-03T09:37:14.852Z,68.03
2018-10-03T09:39:46.375Z,67.56
2018-10-03T09:42:14.542Z,67.79
2018-10-03T09:44:43.704Z,67.20
2018-10-03T09:47:12.083Z,66.31
2018-10-03T09:49:40.206Z,66.47
2018-10-03T09:52:09.019Z,65.64
2018-10-03T09:54:37.238Z,65.91
2018-10-03T09:57:06.670Z,65.64
2018-10-03T09:59:38.799Z,65.44
2018-10-03T10:02:10.472Z,66.08
2018-10-03T10:04:38.502Z,65.21
2018-10-03T10:07:06.782Z,65.60
2018-10-03T10:09:35.427Z,64.47
2018-10-03T10:12:04.621Z,64.17
2018-10-03T10:14:33.413Z,61.28
2018-10-03T10:17:02.074Z,58.32
2018-10-03T10:19:30.599Z,57.56
2018-10-03T10:21:58.624Z,59.03
2018-10-03T10:24:26.488Z,59.87
2018-10-03T10:26:54.000Z,61.25
2018-10-03T10:29:22.557Z,61.48
2018-10-03T10:31:54.154Z,62.66
2018-10-03T10:34:22.608Z,63.89
2018-10-03T10:36:50.128Z,64.24
2018-10-03T10:39:21.300Z,65.26
2018-10-03T10:41:50.647Z,64.94
2018-10-03T10:44:19.136Z,65.67
2018-10-03T10:46:47.387Z,65.71
2018-10-03T10:49:15.526Z,64.43
2018-10-03T10:51:44.585Z,60.78
2018-10-03T10:54:12.392Z,60.85
2018-10-03T10:56:41.248Z,59.92
2018-10-03T10:59:10.351Z,59.67
2018-10-03T11:01:39.836Z,57.15
2018-10-03T11:04:09.704Z,56.62
2018-10-03T11:06:39.081Z,55.47
2018-10-03T11:09:07.691Z,56.11
2018-10-03T11:11:36.621Z,55.06
2018-10-03T11:14:05.022Z,56.57
2018-10-03T11:16:35.205Z,57.68
2018-10-03T11:19:03.548Z,59.59
2018-10-03T11:21:31.771Z,60.52
2018-10-03T11:24:01.244Z,61.27
2018-10-03T11:26:30.264Z,60.77
2018-10-03T11:28:58.612Z,60.14
2018-10-03T11:31:29.276Z,60.43
2018-10-03T11:34:00.462Z,58.57
2018-10-03T11:36:30.077Z,56.98
2018-10-03T11:39:02.690Z,55.04
2018-10-03T11:41:32.537Z,55.19
2018-10-03T11:44:01.571Z,53.79
2018-10-03T11:46:32.631Z,53.54
2018-10-03T11:49:01.484Z,53.41
2018-10-03T11:51:30.770Z,52.58
2018-10-03T11:54:02.232Z,51.12
2018-10-03T11:56:30.733Z,50.97
2018-10-03T11:59:00.464Z,52.36
2018-10-03T12:01:28.610Z,54.31
2018-10-03T12:03:57.764Z,54.40
2018-10-03T12:06:27.545Z,55.22
2018-10-03T12:08:56.531Z,55.84
2018-10-03T12:11:27.276Z,54.95
2018-10-03T12:13:56.428Z,53.82
2018-10-03T12:16:25.347Z,52.13
2018-10-03T12:18:54.240Z,50.76
2018-10-03T12:21:22.543Z,50.69
2018-10-03T12:23:54.840Z,51.79
2018-10-03T12:26:22.369Z,52.62
2018-10-03T12:28:50.590Z,54.39
2018-10-03T12:31:24.184Z,55.96
2018-10-03T12:33:53.421Z,56.21
2018-10-03T12:36:22.347Z,56.14
2018-10-03T12:38:50.176Z,54.21
2018-10-03T12:41:21.345Z,54.71
2018-10-03T12:43:49.664Z,55.13
2018-10-03T12:46:19.276Z,54.79
2018-10-03T12:48:47.895Z,56.02
2018-10-03T12:51:15.435Z,55.93
2018-10-03T12:53:44.697Z,56.86
2018-10-03T12:56:13.971Z,56.99
2018-10-03T12:58:42.275Z,57.63
2018-10-03T13:01:10.479Z,57.52
2018-10-03T13:03:38.923Z,57.08
2018-10-03T13:06:10.774Z,56.39
2018-10-03T13:08:46.325Z,56.96
2018-10-03T13:11:14.631Z,57.57
2018-10-03T13:13:42.663Z,57.24
2018-10-03T13:16:12.088Z,57.32
2018-10-03T13:18:40.266Z,56.41
2018-10-03T13:21:08.347Z,56.48
2018-10-03T13:23:37.843Z,56.51
2018-10-03T13:26:05.463Z,56.36
2018-10-03T13:28:35.021Z,56.11
2018-10-03T13:31:06.818Z,56.95
2018-10-03T13:33:36.374Z,56.70
2018-10-03T13:36:07.004Z,57.27
2018-10-03T13:38:37.377Z,57.09
2018-10-03T13:41:07.383Z,56.51
2018-10-03T13:43:35.878Z,56.11
2018-10-03T13:46:06.941Z,57.13
2018-10-03T13:48:34.739Z,56.18
2018-10-03T13:51:05.255Z,56.36
2018-10-03T13:53:35.284Z,56.51
2018-10-03T13:56:03.779Z,56.15
2018-10-03T13:58:34.526Z,56.11
2018-10-03T14:01:05.799Z,56.38
2018-10-03T14:03:35.373Z,56.65
2018-10-03T14:06:04.075Z,56.25
2018-10-03T14:08:36.400Z,55.30
2018-10-03T14:11:08.469Z,55.17
2018-10-03T14:13:38.172Z,54.91
2018-10-03T14:16:10.079Z,55.18
2018-10-03T14:21:11.703Z,55.82
2018-10-03T14:23:39.199Z,55.59
2018-10-03T14:26:08.452Z,56.19
2018-10-03T14:28:47.343Z,56.17
2018-10-03T14:31:15.692Z,56.11
2018-10-03T14:33:43.567Z,56.48
2018-10-03T14:36:11.743Z,56.92
2018-10-03T14:38:39.281Z,57.22
2018-10-03T14:41:08.814Z,57.52
2018-10-03T14:43:37.133Z,57.27
2018-10-03T14:46:05.160Z,56.59
2018-10-03T14:48:33.617Z,57.19
2018-10-03T14:51:01.624Z,57.06
2018-10-03T14:53:32.654Z,57.49
2018-10-03T14:56:01.010Z,57.73
2018-10-03T14:58:28.682Z,57.03
2018-10-03T15:00:57.397Z,56.45
2018-10-03T15:03:27.616Z,56.14
2018-10-03T15:05:57.445Z,55.82
2018-10-03T15:08:25.573Z,55.56
2018-10-03T15:10:53.442Z,55.87
2018-10-03T15:13:20.959Z,55.67
2018-10-03T15:15:48.480Z,55.11
2018-10-03T15:18:18.572Z,54.89
2018-10-03T15:20:46.755Z,54.49
2018-10-03T15:25:53.325Z,53.45
2018-10-03T15:28:20.837Z,53.35
2018-10-03T15:30:50.278Z,53.56
2018-10-03T15:33:27.512Z,54.10
2018-10-03T15:35:55.003Z,54.52
2018-10-03T15:38:23.667Z,54.86
2018-10-03T15:40:51.604Z,55.05
2018-10-03T15:43:19.923Z,55.41
2018-10-03T15:45:51.564Z,56.05
2018-10-03T15:48:22.859Z,56.30
2018-10-03T15:50:50.356Z,56.86
2018-10-03T15:53:18.450Z,56.46
2018-10-03T15:55:46.385Z,56.98
2018-10-03T15:58:17.464Z,57.26
2018-10-03T16:00:47.801Z,57.22
2018-10-03T16:03:22.516Z,58.04
2018-10-03T16:05:56.211Z,57.75
2018-10-03T16:08:25.140Z,58.09
2018-10-03T16:10:52.660Z,58.45
2018-10-03T16:13:22.750Z,58.53
2018-10-03T16:15:52.350Z,58.21
2018-10-03T16:18:21.299Z,58.80
2018-10-03T16:20:50.298Z,58.55
2018-10-03T16:23:19.592Z,58.47
2018-10-03T16:25:50.791Z,58.83
2018-10-03T16:28:19.416Z,59.13
2018-10-03T16:30:49.340Z,59.41
2018-10-03T16:33:19.403Z,59.77
2018-10-03T16:35:50.412Z,59.41
2018-10-03T16:38:18.379Z,59.53
2018-10-03T16:43:25.264Z,60.12
2018-10-03T16:45:55.675Z,60.02
2018-10-03T16:48:23.911Z,60.59
2018-10-03T16:50:53.508Z,60.84
2018-10-03T16:53:22.639Z,60.79
2018-10-03T16:55:50.995Z,60.85
2018-10-03T16:58:19.800Z,60.70
2018-10-03T17:00:48.483Z,61.16
2018-10-03T17:03:20.395Z,61.19
2018-10-03T17:05:48.604Z,60.78
2018-10-03T17:08:18.315Z,61.22
2018-10-03T17:10:52.448Z,61.42
2018-10-03T17:13:21.852Z,61.68
2018-10-03T17:15:49.590Z,61.55
2018-10-03T17:18:17.943Z,61.95
2018-10-03T17:20:46.257Z,61.39
2018-10-03T17:23:14.515Z,61.64
2018-10-03T17:25:42.800Z,61.95
2018-10-03T17:28:12.306Z,61.55
2018-10-03T17:30:41.339Z,62.36
2018-10-03T17:33:15.487Z,61.94
2018-10-03T17:35:43.818Z,62.18
2018-10-03T17:38:13.302Z,62.32
2018-10-03T17:40:41.176Z,61.92
2018-10-03T17:43:09.655Z,62.21
2018-10-03T17:45:39.911Z,62.74
2018-10-03T17:48:12.504Z,62.21
2018-10-03T17:50:50.263Z,62.64
2018-10-03T17:53:19.569Z,62.96
2018-10-03T17:55:48.148Z,62.85
2018-10-03T17:58:16.318Z,62.39
2018-10-03T18:00:46.045Z,62.46
2018-10-03T18:03:14.859Z,63.13
2018-10-03T18:05:42.590Z,62.91
2018-10-03T18:08:12.395Z,62.90
2018-10-03T18:13:16.403Z,62.96
2018-10-03T18:15:46.124Z,62.62
2018-10-03T18:18:15.915Z,62.64
2018-10-03T18:20:49.309Z,62.66
2018-10-03T18:23:20.633Z,62.32
2018-10-03T18:25:55.512Z,62.89
2018-10-03T18:28:25.843Z,62.68
2018-10-03T18:30:54.540Z,62.53
2018-10-03T18:33:23.251Z,62.65
2018-10-03T18:35:52.328Z,62.35
2018-10-03T18:38:21.940Z,62.88
2018-10-03T18:40:51.049Z,62.70
2018-10-03T18:43:20.659Z,62.84
2018-10-03T18:45:50.454Z,62.71
2018-10-03T18:48:19.368Z,63.04
2018-10-03T18:50:49.239Z,62.88
2018-10-03T18:53:19.424Z,63.20
2018-10-03T18:55:49.513Z,62.39
2018-10-03T18:58:19.399Z,62.61
2018-10-03T19:00:48.042Z,62.55
2018-10-03T19:03:18.857Z,62.24
2018-10-03T19:05:54.149Z,62.43
2018-10-03T19:08:23.366Z,62.78
2018-10-03T19:10:53.599Z,62.39
2018-10-03T19:13:23.194Z,62.68
2018-10-03T19:15:50.717Z,62.84
2018-10-03T19:18:24.372Z,62.80
2018-10-03T19:20:56.583Z,62.62
2018-10-03T19:26:04.633Z,62.36
2018-10-03T19:28:39.319Z,62.66
2018-10-03T19:33:52.275Z,62.17
2018-10-03T19:36:24.834Z,62.31
2018-10-03T19:41:26.299Z,62.74
2018-10-03T19:43:57.195Z,63.37
2018-10-03T19:46:26.219Z,63.42
2018-10-03T19:48:55.100Z,63.31
2018-10-03T19:51:24.557Z,63.95
2018-10-03T19:53:56.478Z,63.51
2018-10-03T19:56:24.122Z,63.84
2018-10-03T19:58:56.689Z,63.82
2018-10-03T20:01:29.376Z,63.73
2018-10-03T20:04:00.368Z,63.90
2018-10-03T20:06:28.145Z,64.23
2018-10-03T20:08:58.024Z,64.44
2018-10-03T20:11:26.816Z,64.22
2018-10-03T20:13:55.610Z,64.79
2018-10-03T20:16:24.911Z,64.12
2018-10-03T20:18:54.383Z,64.68
2018-10-03T20:21:22.519Z,64.92
2018-10-03T20:23:50.839Z,64.93
2018-10-03T20:26:18.461Z,64.42
2018-10-03T20:28:47.763Z,65.02
2018-10-03T20:31:15.879Z,64.57
2018-10-03T20:33:44.098Z,64.81
2018-10-03T20:36:13.274Z,65.18
2018-10-03T20:38:41.502Z,65.17
2018-10-03T20:41:09.884Z,65.08
2018-10-03T20:43:40.024Z,65.40
2018-10-03T20:46:08.304Z,65.50
2018-10-03T20:48:36.670Z,65.18
2018-10-03T20:51:08.221Z,65.01
2018-10-03T20:53:35.817Z,65.45
2018-10-03T20:56:04.432Z,65.84
2018-10-03T20:58:35.369Z,65.41
2018-10-03T21:01:03.756Z,65.48
2018-10-03T21:03:31.772Z,65.57
2018-10-03T21:06:01.463Z,66.09
2018-10-03T21:08:29.490Z,66.35
2018-10-03T21:10:59.145Z,65.63
2018-10-03T21:13:30.459Z,65.96
2018-10-03T21:15:59.422Z,65.73
2018-10-03T21:18:26.897Z,65.79
2018-10-03T21:20:56.603Z,66.19
2018-10-03T21:23:25.480Z,66.45
2018-10-03T21:25:53.263Z,66.25
2018-10-03T21:28:25.575Z,66.85
2018-10-03T21:30:53.370Z,66.32
2018-10-03T21:33:20.848Z,66.70
2018-10-03T21:38:25.940Z,66.59
2018-10-03T21:40:54.394Z,66.33
2018-10-03T21:43:21.978Z,67.26
2018-10-03T21:45:50.329Z,67.07
2018-10-03T21:48:18.211Z,66.82
2018-10-03T21:50:47.733Z,66.94
2018-10-03T21:53:18.379Z,66.71
2018-10-03T21:55:48.100Z,67.38
2018-10-03T21:58:16.387Z,66.88
2018-10-03T22:00:50.041Z,67.49
2018-10-03T22:03:17.894Z,67.77
2018-10-03T22:05:46.450Z,67.86
2018-10-03T22:08:13.934Z,67.38
2018-10-03T22:10:41.923Z,67.82
2018-10-03T22:13:10.096Z,67.58
2018-10-03T22:15:37.615Z,67.68
2018-10-03T22:18:05.512Z,67.87
2018-10-03T22:20:33.754Z,67.80
2018-10-03T22:23:03.262Z,67.82
2018-10-03T22:25:39.943Z,67.79
2018-10-03T22:28:08.007Z,68.00
2018-10-03T22:30:36.106Z,67.53
2018-10-03T22:33:06.516Z,67.76
2018-10-03T22:35:35.389Z,67.52
2018-10-03T22:38:03.035Z,67.85
2018-10-03T22:40:30.823Z,67.60
2018-10-03T22:42:58.370Z,67.50
2018-10-03T22:45:25.925Z,68.35
2018-10-03T22:47:54.542Z,68.25
2018-10-03T22:50:22.139Z,67.69
2018-10-03T22:52:51.683Z,67.62
2018-10-03T22:55:23.045Z,67.57
2018-10-03T22:57:51.282Z,67.78
2018-10-03T23:00:20.532Z,67.96
2018-10-03T23:02:49.377Z,67.07
2018-10-03T23:05:19.148Z,67.45
2018-10-03T23:07:46.731Z,67.46
2018-10-03T23:10:14.329Z,67.73
2018-10-03T23:12:44.957Z,68.76
2018-10-03T23:15:13.744Z,68.46
2018-10-03T23:17:42.113Z,69.05
2018-10-03T23:20:10.578Z,68.57
2018-10-03T23:22:38.121Z,68.38
2018-10-03T23:25:05.709Z,68.95
2018-10-03T23:27:33.825Z,68.69
2018-10-03T23:30:05.311Z,68.02
2018-10-03T23:32:34.419Z,67.92
2018-10-03T23:35:03.614Z,69.14
2018-10-03T23:37:31.169Z,68.71
2018-10-03T23:39:59.158Z,68.63
2018-10-03T23:42:26.740Z,68.73
2018-10-03T23:44:55.473Z,68.88
2018-10-03T23:47:23.213Z,68.95
2018-10-03T23:49:51.223Z,68.88
2018-10-03T23:52:18.793Z,68.78
2018-10-03T23:54:46.918Z,68.64
2018-10-03T23:57:14.853Z,68.48
2018-10-03T23:59:42.601Z,68.69
